sensor_id;sensor_type;location;lat;lon;timestamp;P1;durP1;ratioP1;P2;durP2;ratioP2
14470;SDS011;7321;50.802;4.336;2022-11-15T00:01:43;24.73;;;21.17;;
14470;SDS011;7321;50.802;4.336;2022-11-15T00:04:12;29.90;;;22.10;;
14470;SDS011;7321;50.802;4.336;2022-11-15T00:06:48;24.40;;;21.70;;
14470;SDS011;7321;50.802;4.336;2022-11-15T00:09:34;23.03;;;20.53;;
14470;SDS011;7321;50.802;4.336;2022-11-15T00:12:03;28.97;;;21.63;;
14470;SDS011;7321;50.802;4.336;2022-11-15T00:14:29;26.63;;;21.47;;
14470;SDS011;7321;50.802;4.336;2022-11-15T00:16:54;27.93;;;21.33;;
14470;SDS011;7321;50.802;4.336;2022-11-15T00:19:25;27.23;;;22.43;;
14470;SDS011;7321;50.802;4.336;2022-11-15T00:24:43;28.37;;;22.97;;
14470;SDS011;7321;50.802;4.336;2022-11-15T00:27:17;28.53;;;23.03;;
14470;SDS011;7321;50.802;4.336;2022-11-15T00:29:43;29.47;;;22.83;;
14470;SDS011;7321;50.802;4.336;2022-11-15T00:32:09;27.27;;;22.87;;
14470;SDS011;7321;50.802;4.336;2022-11-15T00:34:35;27.93;;;22.20;;
14470;SDS011;7321;50.802;4.336;2022-11-15T00:37:01;28.07;;;23.17;;
14470;SDS011;7321;50.802;4.336;2022-11-15T00:39:27;28.93;;;22.50;;
14470;SDS011;7321;50.802;4.336;2022-11-15T00:41:53;27.40;;;22.20;;
14470;SDS011;7321;50.802;4.336;2022-11-15T00:44:18;26.67;;;22.70;;
14470;SDS011;7321;50.802;4.336;2022-11-15T00:46:44;26.70;;;22.53;;
14470;SDS011;7321;50.802;4.336;2022-11-15T00:49:10;30.23;;;23.73;;
14470;SDS011;7321;50.802;4.336;2022-11-15T00:51:36;30.67;;;23.17;;
14470;SDS011;7321;50.802;4.336;2022-11-15T00:54:01;30.00;;;25.17;;
14470;SDS011;7321;50.802;4.336;2022-11-15T00:56:27;35.10;;;24.80;;
14470;SDS011;7321;50.802;4.336;2022-11-15T00:58:53;33.97;;;25.60;;
14470;SDS011;7321;50.802;4.336;2022-11-15T01:01:19;30.03;;;25.17;;
14470;SDS011;7321;50.802;4.336;2022-11-15T01:03:45;33.33;;;25.50;;
14470;SDS011;7321;50.802;4.336;2022-11-15T01:06:11;32.93;;;25.57;;
14470;SDS011;7321;50.802;4.336;2022-11-15T01:08:38;34.87;;;26.93;;
14470;SDS011;7321;50.802;4.336;2022-11-15T01:11:06;35.23;;;25.17;;
14470;SDS011;7321;50.802;4.336;2022-11-15T01:13:34;32.90;;;25.10;;
14470;SDS011;7321;50.802;4.336;2022-11-15T01:16:11;32.23;;;25.23;;
14470;SDS011;7321;50.802;4.336;2022-11-15T01:18:38;33.30;;;24.17;;
14470;SDS011;7321;50.802;4.336;2022-11-15T01:21:11;29.47;;;25.03;;
14470;SDS011;7321;50.802;4.336;2022-11-15T01:23:39;32.40;;;25.07;;
14470;SDS011;7321;50.802;4.336;2022-11-15T01:26:06;31.43;;;24.50;;
14470;SDS011;7321;50.802;4.336;2022-11-15T01:28:33;28.93;;;24.20;;
14470;SDS011;7321;50.802;4.336;2022-11-15T01:31:01;28.67;;;23.70;;
14470;SDS011;7321;50.802;4.336;2022-11-15T01:33:29;31.93;;;23.47;;
14470;SDS011;7321;50.802;4.336;2022-11-15T01:35:55;30.30;;;23.37;;
14470;SDS011;7321;50.802;4.336;2022-11-15T01:38:21;27.20;;;22.37;;
14470;SDS011;7321;50.802;4.336;2022-11-15T01:40:48;25.67;;;22.43;;
14470;SDS011;7321;50.802;4.336;2022-11-15T01:43:30;26.20;;;22.17;;
14470;SDS011;7321;50.802;4.336;2022-11-15T01:46:00;26.33;;;21.73;;
14470;SDS011;7321;50.802;4.336;2022-11-15T01:48:34;24.77;;;20.13;;
14470;SDS011;7321;50.802;4.336;2022-11-15T01:51:01;30.67;;;21.60;;
14470;SDS011;7321;50.802;4.336;2022-11-15T01:53:31;24.80;;;20.57;;
14470;SDS011;7321;50.802;4.336;2022-11-15T01:56:04;26.80;;;20.20;;
14470;SDS011;7321;50.802;4.336;2022-11-15T01:58:33;23.63;;;20.43;;
14470;SDS011;7321;50.802;4.336;2022-11-15T02:00:59;23.17;;;19.93;;
14470;SDS011;7321;50.802;4.336;2022-11-15T02:03:28;25.30;;;19.73;;
14470;SDS011;7321;50.802;4.336;2022-11-15T02:06:11;25.83;;;20.60;;
14470;SDS011;7321;50.802;4.336;2022-11-15T02:08:37;23.57;;;19.70;;
14470;SDS011;7321;50.802;4.336;2022-11-15T02:11:04;22.63;;;19.97;;
14470;SDS011;7321;50.802;4.336;2022-11-15T02:13:34;26.40;;;19.90;;
14470;SDS011;7321;50.802;4.336;2022-11-15T02:16:26;27.03;;;19.80;;
14470;SDS011;7321;50.802;4.336;2022-11-15T02:22:10;26.47;;;20.40;;
14470;SDS011;7321;50.802;4.336;2022-11-15T02:24:50;26.87;;;19.70;;
14470;SDS011;7321;50.802;4.336;2022-11-15T02:27:27;23.93;;;20.50;;
14470;SDS011;7321;50.802;4.336;2022-11-15T02:32:38;24.13;;;19.80;;
14470;SDS011;7321;50.802;4.336;2022-11-15T02:35:23;23.00;;;19.63;;
14470;SDS011;7321;50.802;4.336;2022-11-15T02:43:11;25.13;;;18.97;;
14470;SDS011;7321;50.802;4.336;2022-11-15T02:49:17;25.87;;;19.17;;
14470;SDS011;7321;50.802;4.336;2022-11-15T02:51:44;22.27;;;18.10;;
14470;SDS011;7321;50.802;4.336;2022-11-15T02:54:12;20.97;;;17.00;;
14470;SDS011;7321;50.802;4.336;2022-11-15T02:56:43;18.60;;;15.50;;
14470;SDS011;7321;50.802;4.336;2022-11-15T02:59:18;19.70;;;15.77;;
14470;SDS011;7321;50.802;4.336;2022-11-15T03:10:42;18.77;;;14.83;;
14470;SDS011;7321;50.802;4.336;2022-11-15T03:16:07;18.13;;;14.53;;
14470;SDS011;7321;50.802;4.336;2022-11-15T03:18:41;20.83;;;13.97;;
14470;SDS011;7321;50.802;4.336;2022-11-15T03:21:12;16.47;;;13.87;;
14470;SDS011;7321;50.802;4.336;2022-11-15T03:23:43;16.87;;;13.30;;
14470;SDS011;7321;50.802;4.336;2022-11-15T03:26:12;16.90;;;13.10;;
14470;SDS011;7321;50.802;4.336;2022-11-15T03:28:46;14.97;;;12.73;;
14470;SDS011;7321;50.802;4.336;2022-11-15T03:31:15;16.57;;;12.87;;
14470;SDS011;7321;50.802;4.336;2022-11-15T03:34:03;14.40;;;11.70;;
14470;SDS011;7321;50.802;4.336;2022-11-15T03:36:32;13.50;;;10.73;;
14470;SDS011;7321;50.802;4.336;2022-11-15T03:39:01;16.37;;;10.83;;
14470;SDS011;7321;50.802;4.336;2022-11-15T03:41:31;12.93;;;9.60;;
14470;SDS011;7321;50.802;4.336;2022-11-15T03:44:20;13.43;;;9.07;;
14470;SDS011;7321;50.802;4.336;2022-11-15T03:46:59;17.73;;;10.63;;
14470;SDS011;7321;50.802;4.336;2022-11-15T03:49:27;14.30;;;10.17;;
14470;SDS011;7321;50.802;4.336;2022-11-15T03:52:02;10.10;;;9.10;;
14470;SDS011;7321;50.802;4.336;2022-11-15T03:54:29;13.20;;;9.13;;
14470;SDS011;7321;50.802;4.336;2022-11-15T03:56:55;11.10;;;9.23;;
14470;SDS011;7321;50.802;4.336;2022-11-15T03:59:21;13.93;;;9.37;;
14470;SDS011;7321;50.802;4.336;2022-11-15T04:01:47;10.80;;;8.70;;
14470;SDS011;7321;50.802;4.336;2022-11-15T04:04:13;11.77;;;8.60;;
14470;SDS011;7321;50.802;4.336;2022-11-15T04:06:39;12.13;;;8.97;;
14470;SDS011;7321;50.802;4.336;2022-11-15T04:09:04;11.60;;;8.67;;
14470;SDS011;7321;50.802;4.336;2022-11-15T04:11:30;11.63;;;8.23;;
14470;SDS011;7321;50.802;4.336;2022-11-15T04:13:59;8.87;;;7.97;;
14470;SDS011;7321;50.802;4.336;2022-11-15T04:16:25;9.00;;;7.80;;
14470;SDS011;7321;50.802;4.336;2022-11-15T04:18:53;11.13;;;7.60;;
14470;SDS011;7321;50.802;4.336;2022-11-15T04:21:38;9.30;;;7.83;;
14470;SDS011;7321;50.802;4.336;2022-11-15T04:24:33;11.83;;;8.10;;
14470;SDS011;7321;50.802;4.336;2022-11-15T04:26:59;11.40;;;8.53;;
14470;SDS011;7321;50.802;4.336;2022-11-15T04:29:25;10.03;;;8.70;;
14470;SDS011;7321;50.802;4.336;2022-11-15T04:32:04;11.83;;;8.87;;
14470;SDS011;7321;50.802;4.336;2022-11-15T04:34:32;9.73;;;7.67;;
14470;SDS011;7321;50.802;4.336;2022-11-15T04:36:58;9.57;;;8.43;;
14470;SDS011;7321;50.802;4.336;2022-11-15T04:39:42;10.47;;;8.03;;
14470;SDS011;7321;50.802;4.336;2022-11-15T04:42:08;9.60;;;7.33;;
14470;SDS011;7321;50.802;4.336;2022-11-15T04:44:35;11.87;;;7.47;;
14470;SDS011;7321;50.802;4.336;2022-11-15T04:47:01;7.70;;;6.87;;
14470;SDS011;7321;50.802;4.336;2022-11-15T04:49:30;10.40;;;7.30;;
14470;SDS011;7321;50.802;4.336;2022-11-15T04:51:56;10.53;;;8.00;;
14470;SDS011;7321;50.802;4.336;2022-11-15T04:54:24;8.53;;;6.70;;
14470;SDS011;7321;50.802;4.336;2022-11-15T04:56:50;10.60;;;6.80;;
14470;SDS011;7321;50.802;4.336;2022-11-15T04:59:16;9.10;;;6.47;;
14470;SDS011;7321;50.802;4.336;2022-11-15T05:01:42;10.20;;;6.37;;
14470;SDS011;7321;50.802;4.336;2022-11-15T05:04:07;8.20;;;5.83;;
14470;SDS011;7321;50.802;4.336;2022-11-15T05:06:46;10.20;;;6.13;;
14470;SDS011;7321;50.802;4.336;2022-11-15T05:09:16;8.57;;;5.80;;
14470;SDS011;7321;50.802;4.336;2022-11-15T05:11:45;9.37;;;6.03;;
14470;SDS011;7321;50.802;4.336;2022-11-15T05:14:12;7.93;;;6.00;;
14470;SDS011;7321;50.802;4.336;2022-11-15T05:16:38;10.07;;;6.33;;
14470;SDS011;7321;50.802;4.336;2022-11-15T05:19:07;8.30;;;5.33;;
14470;SDS011;7321;50.802;4.336;2022-11-15T05:21:33;9.30;;;6.00;;
14470;SDS011;7321;50.802;4.336;2022-11-15T05:24:00;7.80;;;5.30;;
14470;SDS011;7321;50.802;4.336;2022-11-15T05:26:28;10.07;;;5.50;;
14470;SDS011;7321;50.802;4.336;2022-11-15T05:28:55;8.47;;;4.97;;
14470;SDS011;7321;50.802;4.336;2022-11-15T05:31:23;8.80;;;5.23;;
14470;SDS011;7321;50.802;4.336;2022-11-15T05:33:50;10.40;;;5.20;;
14470;SDS011;7321;50.802;4.336;2022-11-15T05:36:18;7.53;;;5.53;;
14470;SDS011;7321;50.802;4.336;2022-11-15T05:38:56;8.33;;;5.50;;
14470;SDS011;7321;50.802;4.336;2022-11-15T05:41:27;10.97;;;5.37;;
14470;SDS011;7321;50.802;4.336;2022-11-15T05:44:00;8.37;;;5.20;;
14470;SDS011;7321;50.802;4.336;2022-11-15T05:46:28;6.80;;;5.23;;
14470;SDS011;7321;50.802;4.336;2022-11-15T05:48:55;9.27;;;6.13;;
14470;SDS011;7321;50.802;4.336;2022-11-15T05:51:21;10.17;;;5.97;;
14470;SDS011;7321;50.802;4.336;2022-11-15T05:53:49;8.67;;;6.03;;
14470;SDS011;7321;50.802;4.336;2022-11-15T05:56:16;9.43;;;5.93;;
14470;SDS011;7321;50.802;4.336;2022-11-15T05:58:45;7.27;;;5.73;;
14470;SDS011;7321;50.802;4.336;2022-11-15T06:01:10;11.20;;;6.43;;
14470;SDS011;7321;50.802;4.336;2022-11-15T06:03:36;10.07;;;6.40;;
14470;SDS011;7321;50.802;4.336;2022-11-15T06:06:02;8.73;;;6.30;;
14470;SDS011;7321;50.802;4.336;2022-11-15T06:08:28;8.40;;;6.07;;
14470;SDS011;7321;50.802;4.336;2022-11-15T06:10:54;9.73;;;6.30;;
14470;SDS011;7321;50.802;4.336;2022-11-15T06:13:19;9.07;;;5.73;;
14470;SDS011;7321;50.802;4.336;2022-11-15T06:15:45;7.87;;;6.20;;
14470;SDS011;7321;50.802;4.336;2022-11-15T06:18:11;7.63;;;6.07;;
14470;SDS011;7321;50.802;4.336;2022-11-15T06:20:37;9.23;;;6.00;;
14470;SDS011;7321;50.802;4.336;2022-11-15T06:23:03;7.90;;;5.63;;
14470;SDS011;7321;50.802;4.336;2022-11-15T06:25:30;7.47;;;5.43;;
14470;SDS011;7321;50.802;4.336;2022-11-15T06:27:56;8.57;;;5.80;;
14470;SDS011;7321;50.802;4.336;2022-11-15T06:30:23;8.37;;;5.60;;
14470;SDS011;7321;50.802;4.336;2022-11-15T06:32:50;9.30;;;6.07;;
14470;SDS011;7321;50.802;4.336;2022-11-15T06:35:16;8.73;;;6.00;;
14470;SDS011;7321;50.802;4.336;2022-11-15T06:37:42;7.90;;;5.73;;
14470;SDS011;7321;50.802;4.336;2022-11-15T06:40:09;6.13;;;5.57;;
14470;SDS011;7321;50.802;4.336;2022-11-15T06:42:35;8.83;;;5.57;;
14470;SDS011;7321;50.802;4.336;2022-11-15T06:45:01;8.33;;;5.50;;
14470;SDS011;7321;50.802;4.336;2022-11-15T06:47:27;9.67;;;5.43;;
14470;SDS011;7321;50.802;4.336;2022-11-15T06:49:53;9.53;;;4.80;;
14470;SDS011;7321;50.802;4.336;2022-11-15T06:52:19;9.17;;;5.50;;
14470;SDS011;7321;50.802;4.336;2022-11-15T06:54:45;8.20;;;5.60;;
14470;SDS011;7321;50.802;4.336;2022-11-15T06:57:10;8.93;;;5.63;;
14470;SDS011;7321;50.802;4.336;2022-11-15T06:59:36;7.10;;;5.20;;
14470;SDS011;7321;50.802;4.336;2022-11-15T07:02:02;6.23;;;5.37;;
14470;SDS011;7321;50.802;4.336;2022-11-15T07:04:28;7.50;;;5.07;;
14470;SDS011;7321;50.802;4.336;2022-11-15T07:06:54;10.77;;;5.63;;
14470;SDS011;7321;50.802;4.336;2022-11-15T07:09:20;6.97;;;4.90;;
14470;SDS011;7321;50.802;4.336;2022-11-15T07:11:46;7.27;;;5.27;;
14470;SDS011;7321;50.802;4.336;2022-11-15T07:14:12;5.97;;;5.27;;
14470;SDS011;7321;50.802;4.336;2022-11-15T07:16:39;11.90;;;5.50;;
14470;SDS011;7321;50.802;4.336;2022-11-15T07:19:04;8.93;;;5.73;;
14470;SDS011;7321;50.802;4.336;2022-11-15T07:21:30;9.53;;;5.47;;
14470;SDS011;7321;50.802;4.336;2022-11-15T07:24:05;9.57;;;5.90;;
14470;SDS011;7321;50.802;4.336;2022-11-15T07:26:43;11.37;;;6.20;;
14470;SDS011;7321;50.802;4.336;2022-11-15T07:29:11;9.87;;;6.33;;
14470;SDS011;7321;50.802;4.336;2022-11-15T07:31:40;10.03;;;6.47;;
14470;SDS011;7321;50.802;4.336;2022-11-15T07:34:06;9.43;;;6.20;;
14470;SDS011;7321;50.802;4.336;2022-11-15T07:36:31;10.20;;;5.90;;
14470;SDS011;7321;50.802;4.336;2022-11-15T07:38:57;8.50;;;6.03;;
14470;SDS011;7321;50.802;4.336;2022-11-15T07:41:26;8.37;;;6.20;;
14470;SDS011;7321;50.802;4.336;2022-11-15T07:43:51;8.20;;;6.50;;
14470;SDS011;7321;50.802;4.336;2022-11-15T07:46:18;12.80;;;6.60;;
14470;SDS011;7321;50.802;4.336;2022-11-15T07:48:46;9.20;;;6.50;;
14470;SDS011;7321;50.802;4.336;2022-11-15T07:51:16;9.07;;;7.00;;
14470;SDS011;7321;50.802;4.336;2022-11-15T07:53:42;11.80;;;7.23;;
14470;SDS011;7321;50.802;4.336;2022-11-15T07:56:09;10.57;;;8.53;;
14470;SDS011;7321;50.802;4.336;2022-11-15T07:58:35;10.87;;;7.33;;
14470;SDS011;7321;50.802;4.336;2022-11-15T08:01:04;11.67;;;7.87;;
14470;SDS011;7321;50.802;4.336;2022-11-15T08:03:31;10.60;;;7.10;;
14470;SDS011;7321;50.802;4.336;2022-11-15T08:05:58;7.20;;;5.50;;
14470;SDS011;7321;50.802;4.336;2022-11-15T08:08:23;6.00;;;5.00;;
14470;SDS011;7321;50.802;4.336;2022-11-15T08:10:49;6.33;;;5.00;;
14470;SDS011;7321;50.802;4.336;2022-11-15T08:13:15;5.27;;;4.77;;
14470;SDS011;7321;50.802;4.336;2022-11-15T08:15:42;8.33;;;5.30;;
14470;SDS011;7321;50.802;4.336;2022-11-15T08:18:10;7.87;;;5.17;;
14470;SDS011;7321;50.802;4.336;2022-11-15T08:20:38;11.50;;;5.30;;
14470;SDS011;7321;50.802;4.336;2022-11-15T08:23:04;10.73;;;4.60;;
14470;SDS011;7321;50.802;4.336;2022-11-15T08:25:31;6.67;;;5.70;;
14470;SDS011;7321;50.802;4.336;2022-11-15T08:27:59;7.53;;;4.53;;
14470;SDS011;7321;50.802;4.336;2022-11-15T08:30:27;5.73;;;4.50;;
14470;SDS011;7321;50.802;4.336;2022-11-15T08:32:53;5.40;;;3.77;;
14470;SDS011;7321;50.802;4.336;2022-11-15T08:35:21;6.43;;;3.40;;
14470;SDS011;7321;50.802;4.336;2022-11-15T08:37:46;6.93;;;3.70;;
14470;SDS011;7321;50.802;4.336;2022-11-15T08:40:12;4.60;;;3.40;;
14470;SDS011;7321;50.802;4.336;2022-11-15T08:42:39;3.57;;;3.10;;
14470;SDS011;7321;50.802;4.336;2022-11-15T08:45:05;5.17;;;3.60;;
14470;SDS011;7321;50.802;4.336;2022-11-15T08:47:32;6.43;;;3.70;;
14470;SDS011;7321;50.802;4.336;2022-11-15T08:49:58;5.37;;;3.27;;
14470;SDS011;7321;50.802;4.336;2022-11-15T08:52:23;4.20;;;3.20;;
14470;SDS011;7321;50.802;4.336;2022-11-15T08:54:49;4.73;;;3.07;;
14470;SDS011;7321;50.802;4.336;2022-11-15T08:57:15;4.97;;;3.00;;
14470;SDS011;7321;50.802;4.336;2022-11-15T08:59:41;7.97;;;3.20;;
14470;SDS011;7321;50.802;4.336;2022-11-15T09:02:10;7.07;;;3.70;;
14470;SDS011;7321;50.802;4.336;2022-11-15T09:04:39;5.13;;;3.23;;
14470;SDS011;7321;50.802;4.336;2022-11-15T09:07:10;7.80;;;3.20;;
14470;SDS011;7321;50.802;4.336;2022-11-15T09:09:37;5.40;;;3.17;;
14470;SDS011;7321;50.802;4.336;2022-11-15T09:12:03;7.83;;;3.13;;
14470;SDS011;7321;50.802;4.336;2022-11-15T09:14:30;7.23;;;3.13;;
14470;SDS011;7321;50.802;4.336;2022-11-15T09:16:56;7.13;;;3.27;;
14470;SDS011;7321;50.802;4.336;2022-11-15T09:19:23;5.50;;;3.13;;
14470;SDS011;7321;50.802;4.336;2022-11-15T09:21:49;4.23;;;2.50;;
14470;SDS011;7321;50.802;4.336;2022-11-15T09:24:15;6.80;;;3.13;;
14470;SDS011;7321;50.802;4.336;2022-11-15T09:26:41;6.43;;;2.73;;
14470;SDS011;7321;50.802;4.336;2022-11-15T09:29:06;9.40;;;3.27;;
14470;SDS011;7321;50.802;4.336;2022-11-15T09:31:35;7.93;;;3.10;;
14470;SDS011;7321;50.802;4.336;2022-11-15T09:34:04;8.00;;;2.80;;
14470;SDS011;7321;50.802;4.336;2022-11-15T09:36:30;4.23;;;2.73;;
14470;SDS011;7321;50.802;4.336;2022-11-15T09:38:57;6.10;;;2.53;;
14470;SDS011;7321;50.802;4.336;2022-11-15T09:41:33;6.37;;;2.90;;
14470;SDS011;7321;50.802;4.336;2022-11-15T09:49:50;3.67;;;2.57;;
14470;SDS011;7321;50.802;4.336;2022-11-15T09:52:22;6.20;;;2.30;;
14470;SDS011;7321;50.802;4.336;2022-11-15T09:54:49;4.63;;;2.23;;
14470;SDS011;7321;50.802;4.336;2022-11-15T10:02:43;6.80;;;2.80;;
14470;SDS011;7321;50.802;4.336;2022-11-15T10:05:36;5.70;;;2.20;;
14470;SDS011;7321;50.802;4.336;2022-11-15T10:10:57;6.27;;;2.70;;
14470;SDS011;7321;50.802;4.336;2022-11-15T10:13:26;7.57;;;3.10;;
14470;SDS011;7321;50.802;4.336;2022-11-15T10:15:57;5.97;;;2.20;;
14470;SDS011;7321;50.802;4.336;2022-11-15T10:18:34;7.13;;;3.13;;
14470;SDS011;7321;50.802;4.336;2022-11-15T10:21:27;6.77;;;2.70;;
14470;SDS011;7321;50.802;4.336;2022-11-15T10:24:00;7.60;;;2.53;;
14470;SDS011;7321;50.802;4.336;2022-11-15T10:26:26;12.40;;;2.67;;
14470;SDS011;7321;50.802;4.336;2022-11-15T10:28:53;6.70;;;2.37;;
14470;SDS011;7321;50.802;4.336;2022-11-15T10:31:26;6.43;;;2.47;;
14470;SDS011;7321;50.802;4.336;2022-11-15T10:36:45;7.27;;;1.87;;
14470;SDS011;7321;50.802;4.336;2022-11-15T10:39:18;6.83;;;2.00;;
14470;SDS011;7321;50.802;4.336;2022-11-15T10:41:44;5.57;;;1.80;;
14470;SDS011;7321;50.802;4.336;2022-11-15T10:46:42;5.43;;;1.80;;
14470;SDS011;7321;50.802;4.336;2022-11-15T10:49:21;4.33;;;2.13;;
14470;SDS011;7321;50.802;4.336;2022-11-15T10:51:57;6.93;;;2.00;;
14470;SDS011;7321;50.802;4.336;2022-11-15T10:54:30;6.03;;;2.40;;
14470;SDS011;7321;50.802;4.336;2022-11-15T10:57:04;4.33;;;2.00;;
14470;SDS011;7321;50.802;4.336;2022-11-15T10:59:35;6.43;;;2.23;;
14470;SDS011;7321;50.802;4.336;2022-11-15T11:02:08;6.53;;;2.23;;
14470;SDS011;7321;50.802;4.336;2022-11-15T11:04:53;7.33;;;2.30;;
14470;SDS011;7321;50.802;4.336;2022-11-15T11:07:23;6.90;;;2.00;;
14470;SDS011;7321;50.802;4.336;2022-11-15T11:10:05;8.33;;;2.27;;
14470;SDS011;7321;50.802;4.336;2022-11-15T11:12:44;4.83;;;2.10;;
14470;SDS011;7321;50.802;4.336;2022-11-15T11:15:11;7.97;;;1.70;;
14470;SDS011;7321;50.802;4.336;2022-11-15T11:25:56;3.80;;;1.43;;
14470;SDS011;7321;50.802;4.336;2022-11-15T11:31:33;3.33;;;1.63;;
14470;SDS011;7321;50.802;4.336;2022-11-15T11:34:37;5.17;;;1.77;;
14470;SDS011;7321;50.802;4.336;2022-11-15T11:50:39;6.93;;;1.70;;
14470;SDS011;7321;50.802;4.336;2022-11-15T11:56:31;4.13;;;1.77;;
14470;SDS011;7321;50.802;4.336;2022-11-15T12:02:18;4.87;;;1.90;;
14470;SDS011;7321;50.802;4.336;2022-11-15T12:04:52;4.97;;;1.90;;
14470;SDS011;7321;50.802;4.336;2022-11-15T12:07:31;3.83;;;1.70;;
14470;SDS011;7321;50.802;4.336;2022-11-15T12:13:07;5.90;;;2.63;;
14470;SDS011;7321;50.802;4.336;2022-11-15T12:15:47;3.40;;;1.70;;
14470;SDS011;7321;50.802;4.336;2022-11-15T12:18:22;6.43;;;2.20;;
14470;SDS011;7321;50.802;4.336;2022-11-15T12:21:31;5.67;;;2.07;;
14470;SDS011;7321;50.802;4.336;2022-11-15T12:23:44;6.53;;;2.60;;
14470;SDS011;7321;50.802;4.336;2022-11-15T12:26:19;6.63;;;3.20;;
14470;SDS011;7321;50.802;4.336;2022-11-15T12:28:52;7.87;;;3.37;;
14470;SDS011;7321;50.802;4.336;2022-11-15T12:31:35;8.87;;;4.67;;
14470;SDS011;7321;50.802;4.336;2022-11-15T12:36:55;8.97;;;4.67;;
14470;SDS011;7321;50.802;4.336;2022-11-15T12:39:21;11.03;;;4.53;;
14470;SDS011;7321;50.802;4.336;2022-11-15T12:47:23;8.30;;;4.40;;
14470;SDS011;7321;50.802;4.336;2022-11-15T12:49:51;8.23;;;4.13;;
14470;SDS011;7321;50.802;4.336;2022-11-15T12:52:17;6.10;;;4.03;;
14470;SDS011;7321;50.802;4.336;2022-11-15T12:54:55;6.07;;;3.33;;
14470;SDS011;7321;50.802;4.336;2022-11-15T12:57:30;6.67;;;3.33;;
14470;SDS011;7321;50.802;4.336;2022-11-15T13:02:47;6.80;;;2.90;;
14470;SDS011;7321;50.802;4.336;2022-11-15T13:18:34;4.40;;;1.67;;
14470;SDS011;7321;50.802;4.336;2022-11-15T13:21:04;2.53;;;1.53;;
14470;SDS011;7321;50.802;4.336;2022-11-15T13:24:02;3.20;;;1.57;;
14470;SDS011;7321;50.802;4.336;2022-11-15T13:26:28;3.17;;;1.77;;
14470;SDS011;7321;50.802;4.336;2022-11-15T13:28:54;5.43;;;2.10;;
14470;SDS011;7321;50.802;4.336;2022-11-15T13:31:22;2.23;;;1.53;;
14470;SDS011;7321;50.802;4.336;2022-11-15T13:33:51;4.47;;;1.90;;
14470;SDS011;7321;50.802;4.336;2022-11-15T13:38:53;3.30;;;1.30;;
14470;SDS011;7321;50.802;4.336;2022-11-15T13:41:44;4.47;;;1.67;;
14470;SDS011;7321;50.802;4.336;2022-11-15T13:44:19;6.77;;;1.80;;
14470;SDS011;7321;50.802;4.336;2022-11-15T13:47:00;2.37;;;1.60;;
14470;SDS011;7321;50.802;4.336;2022-11-15T13:49:46;2.37;;;1.40;;
14470;SDS011;7321;50.802;4.336;2022-11-15T13:52:13;3.90;;;1.70;;
14470;SDS011;7321;50.802;4.336;2022-11-15T13:57:25;2.47;;;1.60;;
14470;SDS011;7321;50.802;4.336;2022-11-15T14:00:06;3.20;;;1.70;;
14470;SDS011;7321;50.802;4.336;2022-11-15T14:02:53;2.47;;;1.97;;
14470;SDS011;7321;50.802;4.336;2022-11-15T14:05:21;2.43;;;1.60;;
14470;SDS011;7321;50.802;4.336;2022-11-15T14:07:53;3.90;;;1.83;;
14470;SDS011;7321;50.802;4.336;2022-11-15T14:10:31;5.30;;;2.27;;
14470;SDS011;7321;50.802;4.336;2022-11-15T14:12:58;2.27;;;1.73;;
14470;SDS011;7321;50.802;4.336;2022-11-15T14:17:56;2.67;;;2.37;;
14470;SDS011;7321;50.802;4.336;2022-11-15T14:22:54;3.13;;;2.37;;
14470;SDS011;7321;50.802;4.336;2022-11-15T14:25:22;4.90;;;2.50;;
14470;SDS011;7321;50.802;4.336;2022-11-15T14:30:34;5.20;;;2.90;;
14470;SDS011;7321;50.802;4.336;2022-11-15T14:33:00;5.87;;;3.70;;
14470;SDS011;7321;50.802;4.336;2022-11-15T14:35:25;5.50;;;3.67;;
14470;SDS011;7321;50.802;4.336;2022-11-15T14:37:52;6.73;;;3.93;;
14470;SDS011;7321;50.802;4.336;2022-11-15T14:40:18;5.13;;;3.10;;
14470;SDS011;7321;50.802;4.336;2022-11-15T14:42:47;4.80;;;3.33;;
14470;SDS011;7321;50.802;4.336;2022-11-15T14:45:15;4.73;;;3.27;;
14470;SDS011;7321;50.802;4.336;2022-11-15T14:47:43;4.93;;;3.10;;
14470;SDS011;7321;50.802;4.336;2022-11-15T14:50:16;6.27;;;3.00;;
14470;SDS011;7321;50.802;4.336;2022-11-15T14:52:44;3.40;;;2.60;;
14470;SDS011;7321;50.802;4.336;2022-11-15T14:55:16;4.50;;;2.83;;
14470;SDS011;7321;50.802;4.336;2022-11-15T14:57:45;4.17;;;3.00;;
14470;SDS011;7321;50.802;4.336;2022-11-15T15:00:11;4.10;;;2.90;;
14470;SDS011;7321;50.802;4.336;2022-11-15T15:02:38;5.37;;;3.67;;
14470;SDS011;7321;50.802;4.336;2022-11-15T15:05:25;4.37;;;3.20;;
14470;SDS011;7321;50.802;4.336;2022-11-15T15:07:55;3.93;;;3.37;;
14470;SDS011;7321;50.802;4.336;2022-11-15T15:10:21;3.93;;;2.70;;
14470;SDS011;7321;50.802;4.336;2022-11-15T15:12:47;6.13;;;3.37;;
14470;SDS011;7321;50.802;4.336;2022-11-15T15:15:19;4.30;;;3.20;;
14470;SDS011;7321;50.802;4.336;2022-11-15T15:17:49;3.80;;;3.13;;
14470;SDS011;7321;50.802;4.336;2022-11-15T15:20:15;5.07;;;3.23;;
14470;SDS011;7321;50.802;4.336;2022-11-15T15:22:41;3.97;;;3.03;;
14470;SDS011;7321;50.802;4.336;2022-11-15T15:25:40;4.63;;;3.20;;
14470;SDS011;7321;50.802;4.336;2022-11-15T15:28:00;6.53;;;3.50;;
14470;SDS011;7321;50.802;4.336;2022-11-15T15:30:27;5.13;;;3.60;;
14470;SDS011;7321;50.802;4.336;2022-11-15T15:32:54;4.87;;;3.50;;
14470;SDS011;7321;50.802;4.336;2022-11-15T15:35:21;4.27;;;3.73;;
14470;SDS011;7321;50.802;4.336;2022-11-15T15:37:47;6.37;;;3.87;;
14470;SDS011;7321;50.802;4.336;2022-11-15T15:40:24;5.60;;;4.07;;
14470;SDS011;7321;50.802;4.336;2022-11-15T15:42:51;4.97;;;4.00;;
14470;SDS011;7321;50.802;4.336;2022-11-15T15:45:17;6.13;;;4.43;;
14470;SDS011;7321;50.802;4.336;2022-11-15T15:47:43;6.03;;;4.27;;
14470;SDS011;7321;50.802;4.336;2022-11-15T15:50:26;5.97;;;4.07;;
14470;SDS011;7321;50.802;4.336;2022-11-15T15:52:54;4.73;;;3.63;;
14470;SDS011;7321;50.802;4.336;2022-11-15T15:55:22;5.20;;;3.77;;
14470;SDS011;7321;50.802;4.336;2022-11-15T15:57:48;4.47;;;3.97;;
14470;SDS011;7321;50.802;4.336;2022-11-15T16:00:14;9.23;;;4.30;;
14470;SDS011;7321;50.802;4.336;2022-11-15T16:02:41;4.00;;;3.60;;
14470;SDS011;7321;50.802;4.336;2022-11-15T16:05:07;7.73;;;4.47;;
14470;SDS011;7321;50.802;4.336;2022-11-15T16:07:34;5.73;;;3.93;;
14470;SDS011;7321;50.802;4.336;2022-11-15T16:10:00;4.53;;;4.00;;
14470;SDS011;7321;50.802;4.336;2022-11-15T16:12:30;5.40;;;3.87;;
14470;SDS011;7321;50.802;4.336;2022-11-15T16:14:58;5.33;;;4.00;;
14470;SDS011;7321;50.802;4.336;2022-11-15T16:17:34;3.90;;;3.50;;
14470;SDS011;7321;50.802;4.336;2022-11-15T16:20:03;5.13;;;3.57;;
14470;SDS011;7321;50.802;4.336;2022-11-15T16:22:29;4.77;;;4.10;;
14470;SDS011;7321;50.802;4.336;2022-11-15T16:24:55;4.30;;;3.90;;
14470;SDS011;7321;50.802;4.336;2022-11-15T16:27:21;5.20;;;3.90;;
14470;SDS011;7321;50.802;4.336;2022-11-15T16:29:48;5.20;;;4.70;;
14470;SDS011;7321;50.802;4.336;2022-11-15T16:32:15;4.77;;;4.30;;
14470;SDS011;7321;50.802;4.336;2022-11-15T16:34:41;10.37;;;4.70;;
14470;SDS011;7321;50.802;4.336;2022-11-15T16:37:22;4.60;;;4.20;;
14470;SDS011;7321;50.802;4.336;2022-11-15T16:39:49;4.43;;;4.13;;
14470;SDS011;7321;50.802;4.336;2022-11-15T16:42:15;4.27;;;3.90;;
14470;SDS011;7321;50.802;4.336;2022-11-15T16:44:41;5.37;;;4.07;;
14470;SDS011;7321;50.802;4.336;2022-11-15T16:47:16;5.60;;;5.00;;
14470;SDS011;7321;50.802;4.336;2022-11-15T16:49:44;5.80;;;5.20;;
14470;SDS011;7321;50.802;4.336;2022-11-15T16:52:10;6.83;;;4.70;;
14470;SDS011;7321;50.802;4.336;2022-11-15T16:54:36;6.03;;;4.17;;
14470;SDS011;7321;50.802;4.336;2022-11-15T16:57:02;6.87;;;4.50;;
14470;SDS011;7321;50.802;4.336;2022-11-15T16:59:27;4.93;;;4.33;;
14470;SDS011;7321;50.802;4.336;2022-11-15T17:01:55;6.10;;;4.60;;
14470;SDS011;7321;50.802;4.336;2022-11-15T17:04:20;5.37;;;4.80;;
14470;SDS011;7321;50.802;4.336;2022-11-15T17:06:47;5.60;;;4.83;;
14470;SDS011;7321;50.802;4.336;2022-11-15T17:09:20;5.37;;;4.40;;